Time;durP1;ratioP1;P1;durP2;ratioP2;P2;SDS_P1;SDS_P2;PMS_P1;PMS_P2;Temp;Humidity;BMP_temperature;BMP_pressure;BME280_temperature;BME280_humidity;BME280_pressure;Samples;Min_cycle;Max_cycle;Signal;HPM_P1;HPM_P2
2022/05/28 00:00:17;;;;;;;;;;;28.80;48.50;;;;;;662553;29;984;-85
2022/05/28 00:00:37;;;;;;;;;;;28.80;48.40;;;;;;662634;29;825;-85
2022/05/28 00:00:59;;;;;;;;;;;28.80;48.50;;;;;;662653;29;826;-84
2022/05/28 00:01:21;;;;;;;;;;;28.80;48.50;;;;;;662815;29;880;-85
2022/05/28 00:01:42;;;;;;;;;;;28.80;48.50;;;;;;662610;29;935;-84
2022/05/28 00:02:02;;;;;;;;;;;28.80;48.50;;;;;;662604;29;809;-82
2022/05/28 00:02:23;;;;;;;;;;;28.80;48.40;;;;;;662764;29;820;-83
2022/05/28 00:02:44;;;;;;;;;;;28.80;48.50;;;;;;662601;29;905;-85
2022/05/28 00:03:05;;;;;;;;;;;28.80;48.50;;;;;;662672;29;916;-85
2022/05/28 00:03:28;;;;;;;;;;;28.80;48.50;;;;;;661912;29;1248;-85
2022/05/28 00:03:51;;;;;;;;;;;28.80;48.50;;;;;;662467;29;1244;-85
2022/05/28 00:04:13;;;;;;;;;;;28.80;48.50;;;;;;662476;29;825;-86
2022/05/28 00:04:33;;;;;;;;;;;28.80;48.50;;;;;;662476;29;888;-87
2022/05/28 00:04:54;;;;;;;;;;;28.80;48.60;;;;;;662582;29;853;-85
2022/05/28 00:05:14;;;;;;;;;;;28.80;48.50;;;;;;663425;29;797;-85
2022/05/28 00:05:35;;;;;;;;;;;28.80;48.50;;;;;;664403;29;880;-85
2022/05/28 00:05:56;;;;;;;;;;;28.80;48.50;;;;;;662775;29;841;-85
2022/05/28 00:06:22;;;;;;;;;;;28.80;48.50;;;;;;662642;29;789;-86
2022/05/28 00:06:42;;;;;;;;;;;28.80;48.50;;;;;;662498;29;930;-86
2022/05/28 00:07:04;;;;;;;;;;;28.80;48.50;;;;;;662502;29;1380;-86
2022/05/28 00:07:24;;;;;;;;;;;28.80;48.60;;;;;;662707;29;853;-87
2022/05/28 00:07:45;;;;;;;;;;;28.80;48.70;;;;;;662756;29;797;-84
2022/05/28 00:08:05;;;;;;;;;;;28.80;48.50;;;;;;662659;29;841;-84
2022/05/28 00:08:26;;;;;;;;;;;28.80;48.50;;;;;;662690;29;809;-86
2022/05/28 00:08:47;;;;;;;;;;;28.80;48.50;;;;;;662721;29;877;-85
2022/05/28 00:09:08;;;;;;;;;;;28.80;48.50;;;;;;662443;29;869;-84
2022/05/28 00:09:28;;;;;;;;;;;28.80;48.50;;;;;;662464;29;769;-85
2022/05/28 00:09:49;;;;;;;;;;;28.80;49.00;;;;;;661792;29;1564;-85
2022/05/28 00:10:11;;;;;;;;;;;28.80;48.50;;;;;;659642;30;1755;-85
2022/05/28 00:10:33;;;;;;;;;;;28.90;48.50;;;;;;659998;30;1651;-88
2022/05/28 00:10:56;;;;;;;;;;;28.90;48.60;;;;;;658050;30;810;-86
2022/05/28 00:11:21;;;;;;;;;;;28.90;48.50;;;;;;660120;30;810;-87
2022/05/28 00:11:41;;;;;;;;;;;28.90;48.50;;;;;;658526;30;1573;-85
2022/05/28 00:12:02;;;;;;;;;;;28.90;48.50;;;;;;659840;30;1577;-83
2022/05/28 00:12:29;;;;;;;;;;;28.90;48.50;;;;;;659646;30;1680;-84
2022/05/28 00:12:50;;;;;;;;;;;28.90;48.50;;;;;;661651;29;1529;-85
2022/05/28 00:13:11;;;;;;;;;;;28.90;48.50;;;;;;662602;29;884;-86
2022/05/28 00:13:31;;;;;;;;;;;28.90;48.40;;;;;;661533;29;829;-84
2022/05/28 00:13:52;;;;;;;;;;;28.90;48.50;;;;;;660171;30;929;-83
2022/05/28 00:14:13;;;;;;;;;;;28.90;48.90;;;;;;660455;30;1379;-82
2022/05/28 00:14:33;;;;;;;;;;;28.90;48.80;;;;;;661081;30;795;-85
2022/05/28 00:14:54;;;;;;;;;;;28.90;48.40;;;;;;660270;30;782;-85
2022/05/28 00:15:15;;;;;;;;;;;28.90;48.40;;;;;;660096;30;1059;-85
2022/05/28 00:15:35;;;;;;;;;;;28.90;48.50;;;;;;660194;30;919;-82
2022/05/28 00:15:56;;;;;;;;;;;28.90;48.40;;;;;;661210;30;821;-83
2022/05/28 00:16:17;;;;;;;;;;;29.00;49.00;;;;;;659918;30;1498;-83
2022/05/28 00:16:38;;;;;;;;;;;29.00;48.40;;;;;;660133;30;798;-85
2022/05/28 00:16:59;;;;;;;;;;;28.90;48.30;;;;;;660179;30;809;-85
2022/05/28 00:17:19;;;;;;;;;;;28.90;49.10;;;;;;661232;29;936;-84
2022/05/28 00:17:40;;;;;;;;;;;29.00;48.60;;;;;;660162;30;782;-83
2022/05/28 00:18:01;;;;;;;;;;;29.00;49.30;;;;;;660144;30;891;-82
2022/05/28 00:18:21;;;;;;;;;;;29.00;48.40;;;;;;660270;30;1654;-85
2022/05/28 00:18:42;;;;;;;;;;;29.00;48.40;;;;;;660136;30;881;-83
2022/05/28 00:19:06;;;;;;;;;;;29.00;48.40;;;;;;660140;30;885;-82
2022/05/28 00:19:27;;;;;;;;;;;29.00;48.30;;;;;;660110;30;774;-83
2022/05/28 00:19:47;;;;;;;;;;;29.00;48.90;;;;;;660391;30;1103;-85
2022/05/28 00:20:08;;;;;;;;;;;29.00;48.50;;;;;;660178;30;853;-82
2022/05/28 00:20:29;;;;;;;;;;;29.00;48.20;;;;;;660089;30;1111;-85
2022/05/28 00:20:50;;;;;;;;;;;29.00;48.30;;;;;;662311;29;1599;-84
2022/05/28 00:21:11;;;;;;;;;;;29.00;48.30;;;;;;662500;29;813;-84
2022/05/28 00:21:32;;;;;;;;;;;29.00;48.30;;;;;;662485;29;812;-83
2022/05/28 00:21:53;;;;;;;;;;;29.00;48.20;;;;;;662549;29;817;-86
2022/05/28 00:22:14;;;;;;;;;;;29.00;48.30;;;;;;662350;29;881;-85
2022/05/28 00:22:38;;;;;;;;;;;29.00;48.20;;;;;;662019;29;841;-83
2022/05/28 00:22:59;;;;;;;;;;;29.00;48.20;;;;;;659905;30;1961;-86
2022/05/28 00:23:19;;;;;;;;;;;29.00;48.20;;;;;;660025;30;845;-87
2022/05/28 00:23:40;;;;;;;;;;;29.00;48.30;;;;;;659933;30;932;-85
2022/05/28 00:24:01;;;;;;;;;;;29.00;48.40;;;;;;660027;30;794;-85
2022/05/28 00:24:21;;;;;;;;;;;29.00;48.50;;;;;;660218;30;817;-83
2022/05/28 00:24:42;;;;;;;;;;;26.60;47.10;;;;;;660146;30;893;-86
2022/05/28 00:25:02;;;;;;;;;;;29.00;48.50;;;;;;660205;30;779;-84
2022/05/28 00:25:23;;;;;;;;;;;29.00;48.30;;;;;;660181;30;797;-84
2022/05/28 00:25:43;;;;;;;;;;;29.00;48.30;;;;;;660037;30;962;-85
2022/05/28 00:26:05;;;;;;;;;;;29.00;48.30;;;;;;660285;30;924;-86
2022/05/28 00:26:25;;;;;;;;;;;29.00;48.20;;;;;;660246;30;790;-82
2022/05/28 00:26:46;;;;;;;;;;;29.00;48.30;;;;;;660027;30;889;-84
2022/05/28 00:27:06;;;;;;;;;;;29.10;48.30;;;;;;660104;30;889;-84
2022/05/28 00:27:28;;;;;;;;;;;29.00;49.40;;;;;;660100;30;834;-86
2022/05/28 00:27:48;;;;;;;;;;;29.00;48.30;;;;;;660246;30;853;-83
2022/05/28 00:28:09;;;;;;;;;;;29.10;48.30;;;;;;660074;30;798;-83
2022/05/28 00:28:29;;;;;;;;;;;29.00;48.30;;;;;;660139;30;806;-82
2022/05/28 00:28:50;;;;;;;;;;;29.10;48.30;;;;;;660167;30;905;-84
2022/05/28 00:29:11;;;;;;;;;;;29.10;48.30;;;;;;660280;30;856;-84
2022/05/28 00:29:31;;;;;;;;;;;29.10;48.30;;;;;;660142;30;846;-83
2022/05/28 00:29:53;;;;;;;;;;;29.00;48.20;;;;;;660163;30;778;-82
2022/05/28 00:30:14;;;;;;;;;;;29.00;48.20;;;;;;660031;29;1523;-85
2022/05/28 00:30:35;;;;;;;;;;;29.10;48.30;;;;;;660113;30;1529;-83
2022/05/28 00:30:55;;;;;;;;;;;29.10;48.30;;;;;;660380;30;822;-81
2022/05/28 00:31:16;;;;;;;;;;;29.00;48.30;;;;;;660600;30;854;-85
2022/05/28 00:31:37;;;;;;;;;;;29.10;48.40;;;;;;660705;30;846;-82
2022/05/28 00:31:58;;;;;;;;;;;29.00;48.30;;;;;;660635;30;810;-82
2022/05/28 00:32:19;;;;;;;;;;;29.10;48.40;;;;;;660771;30;937;-85
2022/05/28 00:32:41;;;;;;;;;;;29.00;48.30;;;;;;660650;30;865;-82
2022/05/28 00:33:02;;;;;;;;;;;29.00;48.30;;;;;;660715;30;876;-82
2022/05/28 00:33:23;;;;;;;;;;;28.90;48.20;;;;;;660703;30;797;-85
2022/05/28 00:33:44;;;;;;;;;;;29.10;48.30;;;;;;660518;30;880;-83
2022/05/28 00:34:05;;;;;;;;;;;29.00;48.20;;;;;;660639;30;824;-82
2022/05/28 00:34:27;;;;;;;;;;;29.00;48.20;;;;;;660815;29;886;-83
2022/05/28 00:34:48;;;;;;;;;;;29.10;48.30;;;;;;660703;30;837;-82
2022/05/28 00:35:10;;;;;;;;;;;29.10;48.30;;;;;;660690;30;821;-84
2022/05/28 00:35:31;;;;;;;;;;;29.10;48.40;;;;;;660639;30;956;-85
2022/05/28 00:35:52;;;;;;;;;;;29.10;48.30;;;;;;660737;30;830;-85
2022/05/28 00:36:14;;;;;;;;;;;29.10;48.40;;;;;;660631;30;810;-83
2022/05/28 00:36:35;;;;;;;;;;;29.10;48.40;;;;;;660701;30;809;-85
2022/05/28 00:36:55;;;;;;;;;;;29.10;48.40;;;;;;662785;29;1592;-84
2022/05/28 00:37:16;;;;;;;;;;;29.10;48.40;;;;;;662988;29;885;-85
2022/05/28 00:37:36;;;;;;;;;;;29.10;48.40;;;;;;662916;29;940;-83
2022/05/28 00:37:57;;;;;;;;;;;29.10;48.70;;;;;;662878;29;876;-82
2022/05/28 00:38:18;;;;;;;;;;;29.10;48.40;;;;;;663075;29;805;-84
2022/05/28 00:38:39;;;;;;;;;;;29.10;48.40;;;;;;662756;29;793;-82
2022/05/28 00:39:00;;;;;;;;;;;29.10;48.30;;;;;;660589;30;877;-84
2022/05/28 00:39:21;;;;;;;;;;;29.10;48.30;;;;;;660663;30;953;-84
2022/05/28 00:39:41;;;;;;;;;;;29.10;48.40;;;;;;660747;30;810;-82
2022/05/28 00:40:07;;;;;;;;;;;29.10;48.40;;;;;;660410;30;1469;-83
2022/05/28 00:40:28;;;;;;;;;;;29.10;48.40;;;;;;660589;30;831;-84
2022/05/28 00:40:49;;;;;;;;;;;29.10;48.90;;;;;;660704;30;810;-82
2022/05/28 00:41:11;;;;;;;;;;;29.10;48.30;;;;;;660670;29;856;-85
2022/05/28 00:41:32;;;;;;;;;;;29.10;48.30;;;;;;660580;30;519;-85
2022/05/28 00:41:55;;;;;;;;;;;29.10;48.30;;;;;;660668;30;857;-82
2022/05/28 00:42:15;;;;;;;;;;;29.00;48.40;;;;;;660597;30;833;-83
2022/05/28 00:42:36;;;;;;;;;;;29.10;48.30;;;;;;660624;30;798;-85
2022/05/28 00:42:57;;;;;;;;;;;29.10;48.30;;;;;;660518;30;1903;-84
2022/05/28 00:43:18;;;;;;;;;;;29.10;48.30;;;;;;660572;30;1338;-82
2022/05/28 00:43:40;;;;;;;;;;;29.10;48.40;;;;;;660593;30;885;-84
2022/05/28 00:44:03;;;;;;;;;;;29.00;48.30;;;;;;660454;30;984;-81
2022/05/28 00:44:23;;;;;;;;;;;29.00;48.30;;;;;;660081;30;998;-83
2022/05/28 00:44:46;;;;;;;;;;;29.10;48.40;;;;;;660384;30;897;-84
2022/05/28 00:45:08;;;;;;;;;;;29.00;48.80;;;;;;660460;30;1047;-85
2022/05/28 00:45:30;;;;;;;;;;;29.10;48.40;;;;;;660375;30;931;-83
2022/05/28 00:45:52;;;;;;;;;;;29.10;48.40;;;;;;660495;30;896;-82
2022/05/28 00:46:16;;;;;;;;;;;29.00;48.30;;;;;;660581;30;841;-86
2022/05/28 00:46:36;;;;;;;;;;;29.00;48.40;;;;;;660610;30;870;-86
2022/05/28 00:46:59;;;;;;;;;;;29.00;48.30;;;;;;660637;30;813;-86
2022/05/28 00:47:20;;;;;;;;;;;29.00;48.30;;;;;;660697;30;845;-86
2022/05/28 00:47:43;;;;;;;;;;;29.00;48.50;;;;;;660558;30;975;-85
2022/05/28 00:48:04;;;;;;;;;;;29.00;48.40;;;;;;660302;30;1035;-86
2022/05/28 00:48:29;;;;;;;;;;;29.00;48.40;;;;;;660241;30;1196;-87
2022/05/28 00:48:52;;;;;;;;;;;29.00;48.40;;;;;;660349;29;1172;-86
2022/05/28 00:49:19;;;;;;;;;;;29.00;48.40;;;;;;660463;30;806;-86
2022/05/28 00:49:40;;;;;;;;;;;29.00;48.40;;;;;;660439;30;936;-87
2022/05/28 00:50:04;;;;;;;;;;;29.00;48.40;;;;;;660193;30;1056;-86
2022/05/28 00:50:25;;;;;;;;;;;29.00;48.50;;;;;;660796;30;789;-86
2022/05/28 00:50:46;;;;;;;;;;;29.00;48.50;;;;;;660537;30;869;-85
2022/05/28 00:51:08;;;;;;;;;;;29.00;48.50;;;;;;660563;30;1455;-86
2022/05/28 00:51:34;;;;;;;;;;;29.00;48.50;;;;;;660613;30;790;-86
2022/05/28 00:51:59;;;;;;;;;;;29.00;48.50;;;;;;660628;30;1286;-84
2022/05/28 00:52:21;;;;;;;;;;;29.00;48.50;;;;;;660737;30;821;-86
2022/05/28 00:52:42;;;;;;;;;;;29.00;48.60;;;;;;660297;30;1336;-86
2022/05/28 00:53:03;;;;;;;;;;;29.00;48.60;;;;;;660479;30;849;-86
2022/05/28 00:53:24;;;;;;;;;;;29.00;48.60;;;;;;660592;30;829;-87
2022/05/28 00:53:45;;;;;;;;;;;29.00;48.60;;;;;;660656;30;777;-87
2022/05/28 00:54:06;;;;;;;;;;;29.00;48.70;;;;;;660414;30;913;-88
2022/05/28 00:54:30;;;;;;;;;;;29.00;48.50;;;;;;660460;30;817;-83
2022/05/28 00:54:52;;;;;;;;;;;29.00;48.60;;;;;;662743;29;1287;-85
2022/05/28 00:55:13;;;;;;;;;;;29.00;48.60;;;;;;662911;29;892;-85
2022/05/28 00:55:35;;;;;;;;;;;29.00;48.50;;;;;;662923;29;836;-86
2022/05/28 00:55:55;;;;;;;;;;;28.90;48.60;;;;;;663041;29;781;-85
2022/05/28 00:56:16;;;;;;;;;;;28.90;48.60;;;;;;662919;29;882;-86
2022/05/28 00:56:37;;;;;;;;;;;28.90;48.80;;;;;;662456;29;847;-83
2022/05/28 00:56:58;;;;;;;;;;;29.00;48.70;;;;;;660644;30;817;-85
2022/05/28 00:57:19;;;;;;;;;;;28.90;48.60;;;;;;660729;30;781;-88
2022/05/28 00:57:41;;;;;;;;;;;28.90;48.60;;;;;;661259;29;1161;-87
2022/05/28 00:58:11;;;;;;;;;;;28.90;48.60;;;;;;662212;30;897;-85
2022/05/28 00:58:32;;;;;;;;;;;29.00;48.60;;;;;;662666;30;813;-86
2022/05/28 00:58:53;;;;;;;;;;;28.90;48.60;;;;;;662767;30;801;-83
2022/05/28 00:59:13;;;;;;;;;;;28.90;48.60;;;;;;661846;30;1400;-83
2022/05/28 00:59:34;;;;;;;;;;;28.90;48.80;;;;;;662169;30;801;-83
2022/05/28 00:59:55;;;;;;;;;;;28.90;48.80;;;;;;662422;30;813;-83
2022/05/28 01:00:19;;;;;;;;;;;28.90;48.70;;;;;;662134;30;1349;-82
2022/05/28 01:00:40;;;;;;;;;;;28.90;48.60;;;;;;661842;30;1725;-85
2022/05/28 01:01:03;;;;;;;;;;;28.90;48.70;;;;;;662186;30;987;-86
2022/05/28 01:01:26;;;;;;;;;;;28.90;48.60;;;;;;659418;30;884;-87
2022/05/28 01:01:46;;;;;;;;;;;28.90;48.70;;;;;;659266;30;1172;-85
2022/05/28 01:02:12;;;;;;;;;;;28.90;48.80;;;;;;659620;30;786;-85
2022/05/28 01:02:51;;;;;;;;;;;28.90;48.90;;;;;;659384;30;893;-85
2022/05/28 01:03:31;;;;;;;;;;;28.90;48.70;;;;;;660338;30;956;-84
2022/05/28 01:04:01;;;;;;;;;;;28.90;48.70;;;;;;662322;29;816;-84
2022/05/28 01:04:38;;;;;;;;;;;28.90;48.80;;;;;;662425;30;849;-85
2022/05/28 01:04:59;;;;;;;;;;;28.90;48.80;;;;;;661994;30;873;-83
2022/05/28 01:05:23;;;;;;;;;;;28.90;48.90;;;;;;661910;30;869;-85
2022/05/28 01:05:52;;;;;;;;;;;28.90;48.70;;;;;;661522;30;872;-82
2022/05/28 01:06:17;;;;;;;;;;;28.90;48.90;;;;;;659102;30;914;-85
2022/05/28 01:06:59;;;;;;;;;;;28.90;48.80;;;;;;661792;30;786;-87
2022/05/28 01:07:38;;;;;;;;;;;28.90;48.80;;;;;;662071;30;797;-86
2022/05/28 01:08:02;;;;;;;;;;;28.90;48.90;;;;;;661976;30;924;-86
2022/05/28 01:08:42;;;;;;;;;;;28.90;48.90;;;;;;662485;30;916;-83
2022/05/28 01:09:07;;;;;;;;;;;28.90;48.90;;;;;;662744;30;1070;-85
2022/05/28 01:09:40;;;;;;;;;;;28.90;50.10;;;;;;661864;30;1003;-86
2022/05/28 01:10:00;;;;;;;;;;;28.90;48.90;;;;;;661687;30;782;-84
2022/05/28 01:10:28;;;;;;;;;;;28.90;48.90;;;;;;662018;30;877;-85
2022/05/28 01:10:52;;;;;;;;;;;28.90;50.00;;;;;;661956;30;858;-86
2022/05/28 01:11:12;;;;;;;;;;;28.90;48.90;;;;;;661625;30;845;-86
2022/05/28 01:11:37;;;;;;;;;;;28.90;49.00;;;;;;661529;30;856;-86
2022/05/28 01:12:00;;;;;;;;;;;28.90;49.00;;;;;;661702;30;856;-83
2022/05/28 01:12:41;;;;;;;;;;;28.90;49.00;;;;;;661714;30;873;-83
2022/05/28 01:13:06;;;;;;;;;;;28.80;48.90;;;;;;661008;30;1040;-84
2022/05/28 01:13:34;;;;;;;;;;;28.90;49.10;;;;;;661243;30;798;-91
2022/05/28 01:14:15;;;;;;;;;;;28.80;49.00;;;;;;662438;30;1134;-95
2022/05/28 01:14:35;;;;;;;;;;;28.80;49.00;;;;;;662727;30;1020;-96
2022/05/28 01:15:11;;;;;;;;;;;28.80;49.10;;;;;;663377;30;877;-96
2022/05/28 01:15:36;;;;;;;;;;;28.80;49.00;;;;;;662151;30;1047;-90
2022/05/28 01:16:06;;;;;;;;;;;28.80;49.10;;;;;;662009;30;1090;-90
2022/05/28 01:16:35;;;;;;;;;;;28.80;49.10;;;;;;662486;30;727;-90
2022/05/28 01:17:01;;;;;;;;;;;28.80;49.30;;;;;;663340;30;798;-93
2022/05/28 01:17:28;;;;;;;;;;;28.90;49.30;;;;;;662176;30;988;-91
2022/05/28 01:17:55;;;;;;;;;;;28.90;50.40;;;;;;661707;29;1288;-94
2022/05/28 01:18:25;;;;;;;;;;;28.90;49.40;;;;;;662450;30;913;-95
2022/05/28 01:18:45;;;;;;;;;;;28.90;49.80;;;;;;662048;30;984;-96
2022/05/28 01:19:09;;;;;;;;;;;28.90;49.50;;;;;;663055;30;1075;-94
2022/05/28 01:19:56;;;;;;;;;;;28.90;49.50;;;;;;662150;30;818;-92
2022/05/28 01:20:23;;;;;;;;;;;28.90;49.70;;;;;;662019;29;985;-86
2022/05/28 01:20:46;;;;;;;;;;;28.90;50.20;;;;;;661569;30;849;-87
2022/05/28 01:21:09;;;;;;;;;;;28.90;50.40;;;;;;660998;30;944;-86
2022/05/28 01:21:36;;;;;;;;;;;28.90;50.30;;;;;;660510;30;826;-88
2022/05/28 01:21:57;;;;;;;;;;;28.90;50.10;;;;;;660533;30;880;-86
2022/05/28 01:22:22;;;;;;;;;;;28.80;50.10;;;;;;660672;30;838;-85
2022/05/28 01:23:01;;;;;;;;;;;28.90;50.00;;;;;;660544;30;897;-88
2022/05/28 01:23:31;;;;;;;;;;;28.90;49.90;;;;;;660469;30;821;-91
2022/05/28 01:24:08;;;;;;;;;;;28.90;50.10;;;;;;660665;30;801;-90
2022/05/28 01:24:29;;;;;;;;;;;28.80;50.10;;;;;;661426;30;845;-87
2022/05/28 01:25:04;;;;;;;;;;;28.90;50.30;;;;;;660604;30;860;-92
2022/05/28 01:25:25;;;;;;;;;;;28.90;50.30;;;;;;660238;30;1251;-87
2022/05/28 01:26:03;;;;;;;;;;;28.90;50.60;;;;;;660197;30;1446;-89
2022/05/28 01:26:42;;;;;;;;;;;28.90;50.50;;;;;;660554;30;975;-90
2022/05/28 01:27:07;;;;;;;;;;;28.90;50.60;;;;;;660359;30;817;-88
2022/05/28 01:27:30;;;;;;;;;;;28.80;50.60;;;;;;662685;29;825;-88
2022/05/28 01:27:54;;;;;;;;;;;28.80;50.60;;;;;;660653;30;801;-87
2022/05/28 01:28:17;;;;;;;;;;;28.80;50.60;;;;;;660399;30;829;-84
2022/05/28 01:28:40;;;;;;;;;;;28.80;50.60;;;;;;660395;30;1007;-86
2022/05/28 01:29:05;;;;;;;;;;;28.80;50.50;;;;;;660538;30;869;-87
2022/05/28 01:29:28;;;;;;;;;;;28.80;50.60;;;;;;660359;29;1019;-87
2022/05/28 01:29:50;;;;;;;;;;;28.80;50.50;;;;;;660559;30;932;-86
2022/05/28 01:30:13;;;;;;;;;;;28.80;50.40;;;;;;660455;30;868;-88
2022/05/28 01:30:34;;;;;;;;;;;28.80;50.30;;;;;;660471;30;836;-88
2022/05/28 01:30:56;;;;;;;;;;;28.80;50.20;;;;;;660595;30;868;-89
2022/05/28 01:31:17;;;;;;;;;;;28.80;50.10;;;;;;660475;30;916;-87
2022/05/28 01:31:38;;;;;;;;;;;28.80;50.10;;;;;;660137;30;1203;-87
2022/05/28 01:31:59;;;;;;;;;;;28.80;50.10;;;;;;660314;30;785;-89
2022/05/28 01:32:21;;;;;;;;;;;28.80;50.00;;;;;;660407;30;825;-87
2022/05/28 01:32:44;;;;;;;;;;;28.90;50.10;;;;;;660124;30;1285;-85
2022/05/28 01:33:06;;;;;;;;;;;28.90;50.10;;;;;;660307;30;948;-87
2022/05/28 01:33:26;;;;;;;;;;;28.90;50.00;;;;;;660419;30;920;-87
2022/05/28 01:33:48;;;;;;;;;;;28.90;50.00;;;;;;659877;30;1472;-87
2022/05/28 01:34:09;;;;;;;;;;;28.90;51.10;;;;;;660347;30;921;-87
2022/05/28 01:34:32;;;;;;;;;;;28.90;50.00;;;;;;660274;30;905;-87
2022/05/28 01:34:53;;;;;;;;;;;28.90;49.90;;;;;;660365;30;893;-88
2022/05/28 01:35:15;;;;;;;;;;;28.90;49.90;;;;;;660280;30;873;-86
2022/05/28 01:35:37;;;;;;;;;;;28.90;49.90;;;;;;660382;30;781;-87
2022/05/28 01:35:58;;;;;;;;;;;28.90;49.90;;;;;;660452;30;873;-87
2022/05/28 01:36:19;;;;;;;;;;;28.90;50.10;;;;;;660689;30;977;-86
2022/05/28 01:36:40;;;;;;;;;;;28.90;49.90;;;;;;660577;30;900;-88
2022/05/28 01:37:01;;;;;;;;;;;28.90;50.00;;;;;;660413;30;912;-87
2022/05/28 01:37:22;;;;;;;;;;;28.90;49.80;;;;;;660604;30;825;-86
2022/05/28 01:37:44;;;;;;;;;;;28.90;49.80;;;;;;660432;30;941;-88
2022/05/28 01:38:05;;;;;;;;;;;28.90;49.70;;;;;;660458;30;829;-88
2022/05/28 01:38:27;;;;;;;;;;;28.90;49.70;;;;;;660512;29;901;-89
2022/05/28 01:38:48;;;;;;;;;;;28.90;49.70;;;;;;660592;30;837;-88
2022/05/28 01:39:09;;;;;;;;;;;28.90;49.80;;;;;;660435;30;908;-89
2022/05/28 01:39:30;;;;;;;;;;;28.90;49.70;;;;;;660447;30;893;-89
2022/05/28 01:39:52;;;;;;;;;;;28.90;49.60;;;;;;660549;30;782;-87
2022/05/28 01:40:14;;;;;;;;;;;28.90;49.60;;;;;;660555;30;837;-88
2022/05/28 01:40:35;;;;;;;;;;;28.90;49.60;;;;;;660497;30;805;-87
2022/05/28 01:40:56;;;;;;;;;;;29.00;49.70;;;;;;660157;30;889;-88
2022/05/28 01:41:17;;;;;;;;;;;29.00;49.70;;;;;;660400;30;661;-89
2022/05/28 01:41:38;;;;;;;;;;;29.00;49.70;;;;;;660310;30;872;-85
2022/05/28 01:41:59;;;;;;;;;;;29.00;49.70;;;;;;660151;29;798;-87
2022/05/28 01:42:21;;;;;;;;;;;29.00;49.80;;;;;;660362;30;843;-88
2022/05/28 01:42:43;;;;;;;;;;;29.00;49.80;;;;;;660307;30;893;-88
2022/05/28 01:43:06;;;;;;;;;;;29.00;49.70;;;;;;660394;30;1904;-88
2022/05/28 01:43:28;;;;;;;;;;;29.00;49.60;;;;;;660388;30;793;-85
2022/05/28 01:43:49;;;;;;;;;;;29.00;49.70;;;;;;660668;30;797;-89
2022/05/28 01:44:12;;;;;;;;;;;29.00;49.60;;;;;;660465;30;829;-89
2022/05/28 01:44:33;;;;;;;;;;;29.00;49.70;;;;;;660483;29;898;-86
2022/05/28 01:44:54;;;;;;;;;;;29.00;49.70;;;;;;660550;30;885;-89
2022/05/28 01:45:16;;;;;;;;;;;29.00;49.70;;;;;;660506;30;806;-88
2022/05/28 01:45:39;;;;;;;;;;;29.00;49.60;;;;;;660504;30;908;-88
2022/05/28 01:46:00;;;;;;;;;;;29.00;49.60;;;;;;660450;30;821;-88
2022/05/28 01:46:21;;;;;;;;;;;29.00;49.60;;;;;;660671;30;960;-89
2022/05/28 01:46:44;;;;;;;;;;;29.00;49.60;;;;;;660484;30;821;-86
2022/05/28 01:47:05;;;;;;;;;;;29.00;49.60;;;;;;660431;30;806;-89
2022/05/28 01:47:27;;;;;;;;;;;29.00;49.60;;;;;;660542;30;960;-87
2022/05/28 01:47:49;;;;;;;;;;;29.00;49.70;;;;;;660631;30;802;-89
2022/05/28 01:48:10;;;;;;;;;;;29.00;49.70;;;;;;660388;30;956;-89
2022/05/28 01:48:31;;;;;;;;;;;29.00;49.60;;;;;;660462;30;849;-87
2022/05/28 01:48:52;;;;;;;;;;;29.00;49.60;;;;;;660468;29;1314;-89
2022/05/28 01:49:14;;;;;;;;;;;29.00;49.60;;;;;;660497;30;836;-88
2022/05/28 01:49:35;;;;;;;;;;;29.00;49.60;;;;;;660422;30;841;-87
2022/05/28 01:49:57;;;;;;;;;;;29.00;49.70;;;;;;660556;30;904;-89
2022/05/28 01:50:19;;;;;;;;;;;29.00;49.60;;;;;;660555;30;821;-89
2022/05/28 01:50:45;;;;;;;;;;;29.10;49.60;;;;;;660495;30;924;-89
2022/05/28 01:51:06;;;;;;;;;;;29.00;49.60;;;;;;660460;30;834;-88
2022/05/28 01:51:32;;;;;;;;;;;29.00;49.60;;;;;;660229;30;1434;-88
2022/05/28 01:51:54;;;;;;;;;;;29.00;50.00;;;;;;660451;30;837;-88
2022/05/28 01:52:15;;;;;;;;;;;29.10;49.70;;;;;;660241;30;932;-89
2022/05/28 01:52:37;;;;;;;;;;;29.00;49.60;;;;;;657739;30;1498;-87
2022/05/28 01:52:59;;;;;;;;;;;29.10;49.70;;;;;;657701;30;1174;-86
2022/05/28 01:54:09;;;;;;;;;;;29.10;49.60;;;;;;660306;30;663;-87
2022/05/28 01:54:34;;;;;;;;;;;29.00;49.60;;;;;;660429;30;834;-89
2022/05/28 01:54:56;;;;;;;;;;;29.10;49.70;;;;;;660572;30;856;-87
2022/05/28 01:55:17;;;;;;;;;;;29.10;49.60;;;;;;660586;30;889;-88
2022/05/28 01:55:42;;;;;;;;;;;29.10;49.70;;;;;;660509;30;498;-89
2022/05/28 01:56:03;;;;;;;;;;;29.10;49.70;;;;;;660431;30;815;-87
2022/05/28 01:56:24;;;;;;;;;;;29.10;49.70;;;;;;660546;30;856;-88
2022/05/28 01:56:46;;;;;;;;;;;29.10;49.70;;;;;;660418;30;956;-88
2022/05/28 01:57:07;;;;;;;;;;;29.10;49.70;;;;;;660731;30;782;-88
2022/05/28 01:57:27;;;;;;;;;;;29.10;49.60;;;;;;660484;30;983;-88
2022/05/28 01:57:48;;;;;;;;;;;29.10;49.70;;;;;;660364;30;1353;-87
2022/05/28 01:58:08;;;;;;;;;;;29.10;49.70;;;;;;660491;30;837;-88
2022/05/28 01:58:29;;;;;;;;;;;29.10;50.10;;;;;;660473;30;810;-88
2022/05/28 01:58:51;;;;;;;;;;;29.10;49.60;;;;;;660717;30;797;-89
2022/05/28 01:59:12;;;;;;;;;;;29.10;49.60;;;;;;660265;30;1456;-88
2022/05/28 01:59:34;;;;;;;;;;;29.10;49.70;;;;;;660364;30;837;-88
2022/05/28 01:59:56;;;;;;;;;;;29.10;49.60;;;;;;660550;30;782;-89
2022/05/28 02:00:17;;;;;;;;;;;29.10;49.70;;;;;;660492;30;916;-87
2022/05/28 02:00:37;;;;;;;;;;;29.10;49.60;;;;;;660501;30;798;-88
2022/05/28 02:00:58;;;;;;;;;;;29.10;49.60;;;;;;660568;30;920;-86
2022/05/28 02:01:19;;;;;;;;;;;29.10;49.70;;;;;;660473;30;872;-88
2022/05/28 02:01:40;;;;;;;;;;;29.10;49.50;;;;;;660308;30;886;-87
2022/05/28 02:02:02;;;;;;;;;;;29.10;49.50;;;;;;660409;30;860;-88
2022/05/28 02:02:23;;;;;;;;;;;29.10;49.50;;;;;;660611;30;533;-87
2022/05/28 02:02:43;;;;;;;;;;;29.10;49.50;;;;;;660424;30;960;-88
2022/05/28 02:03:05;;;;;;;;;;;29.10;49.50;;;;;;660320;30;1912;-89
2022/05/28 02:03:26;;;;;;;;;;;29.10;49.40;;;;;;659852;30;1210;-89
2022/05/28 02:03:48;;;;;;;;;;;29.10;49.50;;;;;;660411;30;871;-89
2022/05/28 02:04:10;;;;;;;;;;;29.10;49.50;;;;;;660217;30;826;-88
2022/05/28 02:04:31;;;;;;;;;;;29.10;49.60;;;;;;660283;30;841;-89
2022/05/28 02:04:51;;;;;;;;;;;29.10;49.50;;;;;;660384;30;797;-87
2022/05/28 02:05:13;;;;;;;;;;;29.10;49.40;;;;;;660425;30;550;-86
2022/05/28 02:05:33;;;;;;;;;;;29.00;49.30;;;;;;660427;30;820;-88
2022/05/28 02:05:55;;;;;;;;;;;29.00;49.40;;;;;;660565;30;897;-89
2022/05/28 02:06:16;;;;;;;;;;;29.00;49.30;;;;;;660399;30;821;-89
2022/05/28 02:06:38;;;;;;;;;;;29.10;49.40;;;;;;660500;30;790;-87
2022/05/28 02:06:58;;;;;;;;;;;29.10;49.40;;;;;;660556;30;893;-87
2022/05/28 02:07:20;;;;;;;;;;;29.00;49.40;;;;;;660506;30;873;-87
2022/05/28 02:07:41;;;;;;;;;;;29.00;49.30;;;;;;660547;30;786;-86
2022/05/28 02:08:02;;;;;;;;;;;29.00;49.30;;;;;;660461;30;873;-87
2022/05/28 02:08:23;;;;;;;;;;;29.00;49.30;;;;;;660197;30;1205;-89
2022/05/28 02:08:45;;;;;;;;;;;29.00;49.40;;;;;;657686;30;1404;-87
2022/05/28 02:09:10;;;;;;;;;;;29.00;49.40;;;;;;657839;30;779;-87
2022/05/28 02:09:50;;;;;;;;;;;29.00;49.40;;;;;;657561;30;1404;-87
2022/05/28 02:10:12;;;;;;;;;;;29.00;49.40;;;;;;653592;30;1227;-87
2022/05/28 02:10:35;;;;;;;;;;;29.00;49.40;;;;;;659348;30;1069;-85
2022/05/28 02:11:19;;;;;;;;;;;29.00;49.40;;;;;;660304;29;1213;-89
2022/05/28 02:11:45;;;;;;;;;;;29.00;49.50;;;;;;657660;30;1067;-88
2022/05/28 02:12:08;;;;;;;;;;;29.00;49.50;;;;;;657655;30;1051;-89
2022/05/28 02:12:32;;;;;;;;;;;29.00;50.00;;;;;;657553;30;1643;-88
2022/05/28 02:12:56;;;;;;;;;;;29.00;50.30;;;;;;657829;30;813;-86
2022/05/28 02:13:30;;;;;;;;;;;29.00;50.10;;;;;;657812;30;842;-88
2022/05/28 02:13:59;;;;;;;;;;;29.00;49.90;;;;;;657684;30;998;-89
2022/05/28 02:14:30;;;;;;;;;;;29.00;50.10;;;;;;657584;30;1035;-89
2022/05/28 02:14:51;;;;;;;;;;;29.00;50.40;;;;;;657786;30;838;-87
2022/05/28 02:15:25;;;;;;;;;;;28.90;50.30;;;;;;657737;30;794;-88
2022/05/28 02:15:51;;;;;;;;;;;28.90;50.10;;;;;;657742;30;845;-86
2022/05/28 02:16:14;;;;;;;;;;;29.00;50.40;;;;;;657275;30;1323;-88
2022/05/28 02:16:47;;;;;;;;;;;29.00;50.60;;;;;;657430;30;1390;-86
2022/05/28 02:17:18;;;;;;;;;;;28.90;50.90;;;;;;657578;30;874;-87
2022/05/28 02:17:49;;;;;;;;;;;28.90;50.70;;;;;;657273;30;1355;-88
2022/05/28 02:18:18;;;;;;;;;;;28.90;50.80;;;;;;657671;30;849;-89
2022/05/28 02:18:45;;;;;;;;;;;28.90;50.60;;;;;;657636;30;889;-89
2022/05/28 02:19:08;;;;;;;;;;;28.90;50.80;;;;;;657646;30;1393;-88
2022/05/28 02:19:36;;;;;;;;;;;28.90;51.90;;;;;;657571;30;841;-89
2022/05/28 02:20:02;;;;;;;;;;;28.90;50.70;;;;;;657836;30;932;-90
2022/05/28 02:20:25;;;;;;;;;;;28.90;50.70;;;;;;657719;30;786;-90
2022/05/28 02:21:00;;;;;;;;;;;28.90;50.70;;;;;;657599;30;922;-88